Terminal Aerodrome Forecast
Issued by NWS

Home | Current Version | Previous Version | Text Only | Print | Product List | Glossary On
Versions: 1 2 3 4 5 6 7 8 9 10 11 12 13 14 15 16 17 18
000
FTUS43 KGRR 300500
TAFBTL
TAF
KBTL 300540Z 3006/0106 36008KT P6SM -RA OVC007
      TEMPO 3006/3007 4SM -RA BR
     FM300700 01008KT 5SM -DZ BR OVC006
     FM301100 01008KT P6SM BKN015
     FM301700 35008KT P6SM BKN025
     FM302100 33008KT P6SM BKN035
     FM010000 VRB03KT P6SM SCT035=

USA.gov is the U.S. government's official web portal to all federal, state and local government web resources and services.